Pahoa, HI

7:21 AM HST on December 20, 2014 (GMT -1000)
Hawaiian Shores Rec. | Change Station
CLOSE
Current Station
Personal Weather Station
Location: Pahoa, HI
Elevation: 217 ft
Nearby Weather Stations

Elev 217 ft 19.54 °N, 154.90 °W | Updated 1 second ago

Rain
Rain
67.1 °F
Feels Like 67.1 °F
N
8.0
Wind Variable Wind from ESE
Gusts 23.0 mph

Today
High -- | Low -- °F
--% Chance of Precip.
Yesterday
High -- | Low -- °F
Precip. -- in
6:48 AM 5:46 PM
Waning Crescent, 2% visible
Pressure 30.06 in
Visibility 10.0 miles
Clouds Few 3000 ft
Mostly Cloudy 6000 ft
Dew Point 66 °F
Humidity 98%
Rainfall 0.82 in
Snow Depth Not available.
UV 0 out of 12
Pollen Not available.
Air Quality Not available.
Flu Activity Not available.
METAR PHTO 201653Z 25004KT 10SM FEW030 BKN060 21/18 A3006 RMK AO2 SLP178 T02060178 $

More Conditions Fewer Conditions

Pressure 30.06 in
Visibility 10.0 miles
Clouds Few 3000 ft
Mostly Cloudy 6000 ft
Dew Point 66 °F
Humidity 98%
Rainfall 0.82 in
Snow Depth Not available.
UV 0 out of 12
Pollen Not available.
Air Quality Not available.
Flu Activity Not available.
METAR PHTO 201653Z 25004KT 10SM FEW030 BKN060 21/18 A3006 RMK AO2 SLP178 T02060178 $

More Conditions Fewer Conditions

10-Day Weather Forecast

Almanac

Astronomy

Dec. 20, 2014 Rise Set
Actual Time
Civil Twilight
Nautical Twilight
Astronomical Twilight
Moon
Length of Visible Light
Length of Day
Tomorrow will be .
, % of the Moon is Illuminated

Today's Extremes

State Highs State Lows

Community

WunderPhotos

Upload Photos

1,779,226 photos uploaded!

WunderBlogs® & News

Nearby

Air Quality

  Air Quality AQ Index Pollutant
Not available.

Snow Depth

Station Depth Elevation

Earthquake Activity

City Distance Mag. Time & Date
Minimum magnitude displayed is 2.5.

Coastal Water Temperatures

Place Temperature

Nearby Weather Stations